Time;durP1;ratioP1;P1;durP2;ratioP2;P2;SDS_P1;SDS_P2;PMS_P1;PMS_P2;Temp;Humidity;BMP_temperature;BMP_pressure;BME280_temperature;BME280_humidity;BME280_pressure;Samples;Min_cycle;Max_cycle;Signal;HPM_P1;HPM_P2
2023/02/23 00:02:20;;;;;;;24.50;15.60;;;;;;;1.11;85.28;97336.61;110219;1243;59707;-67
2023/02/23 00:04:49;;;;;;;24.90;16.10;;;;;;;1.13;84.83;97334.63;110196;1242;70730;-66
2023/02/23 00:07:19;;;;;;;22.50;14.50;;;;;;;1.17;83.81;97338.98;110219;1241;68510;-67
2023/02/23 00:09:49;;;;;;;26.10;17.80;;;;;;;1.19;83.86;97339.23;110195;1244;69347;-67
2023/02/23 00:12:19;;;;;;;38.10;25.20;;;;;;;1.21;84.41;97345.00;110170;1242;59718;-67
2023/02/23 00:14:48;;;;;;;28.10;18.10;;;;;;;1.20;84.09;97342.63;110243;1242;59601;-66
2023/02/23 00:17:18;;;;;;;37.70;23.40;;;;;;;1.19;84.23;97344.55;110237;1241;72006;-65
2023/02/23 00:19:48;;;;;;;37.80;26.30;;;;;;;1.19;82.93;97344.05;110216;1242;68507;-66
2023/02/23 00:22:17;;;;;;;40.80;28.50;;;;;;;1.15;85.28;97347.79;110212;1241;67474;-66
2023/02/23 00:24:46;;;;;;;35.80;23.60;;;;;;;1.16;85.88;97349.83;110133;1242;59702;-66
2023/02/23 00:27:19;;;;;;;31.60;20.90;;;;;;;1.17;84.72;97347.23;110165;1241;59704;-66
2023/02/23 00:29:50;;;;;;;33.30;21.80;;;;;;;1.18;84.86;97347.17;110171;1241;72079;-66
2023/02/23 00:32:22;;;;;;;26.20;18.30;;;;;;;1.20;85.02;97345.20;109857;1241;69677;-65
2023/02/23 00:34:52;;;;;;;23.80;16.50;;;;;;;1.21;85.08;97341.58;110114;1245;69264;-66
2023/02/23 00:37:22;;;;;;;22.30;15.60;;;;;;;1.22;84.28;97345.64;110157;1243;59698;-66
2023/02/23 00:39:55;;;;;;;20.90;14.60;;;;;;;1.22;84.14;97344.61;110156;1244;59737;-66
2023/02/23 00:42:31;;;;;;;19.90;14.30;;;;;;;1.24;84.13;97341.46;110134;1244;71432;-66
2023/02/23 00:45:07;;;;;;;18.90;13.90;;;;;;;1.25;83.18;97341.09;110136;1243;68502;-66
2023/02/23 00:47:41;;;;;;;26.00;17.80;;;;;;;1.25;83.88;97345.36;110131;1241;68306;-66
2023/02/23 00:50:17;;;;;;;21.30;14.40;;;;;;;1.24;83.57;97347.11;110142;1243;59703;-66
2023/02/23 00:52:47;;;;;;;20.40;15.30;;;;;;;1.23;83.34;97346.45;109877;1245;59727;-66
2023/02/23 00:55:18;;;;;;;24.50;16.80;;;;;;;1.23;84.04;97347.33;110181;1243;70610;-66
2023/02/23 00:57:49;;;;;;;27.80;19.10;;;;;;;1.23;83.99;97347.15;110136;1244;69179;-65
2023/02/23 01:00:19;;;;;;;26.40;16.40;;;;;;;1.22;84.15;97345.81;110173;1243;69394;-67
2023/02/23 01:02:49;;;;;;;24.60;16.20;;;;;;;1.20;83.75;97344.35;110136;1242;59666;-65
2023/02/23 01:05:21;;;;;;;20.80;15.40;;;;;;;1.19;83.11;97341.99;110173;1244;59691;-68
2023/02/23 01:07:51;;;;;;;22.90;14.70;;;;;;;1.17;83.93;97344.98;109809;1245;70637;-66
2023/02/23 01:10:22;;;;;;;20.70;14.10;;;;;;;1.16;82.77;97338.66;110069;1241;68570;-65
2023/02/23 01:12:54;;;;;;;22.20;15.10;;;;;;;1.15;82.21;97339.75;110184;1243;68229;-66
2023/02/23 01:15:24;;;;;;;;;;;;;;;1.14;82.92;97339.25;110171;1244;59740;-66
2023/02/23 01:17:55;;;;;;;20.70;14.60;;;;;;;1.12;83.69;97340.70;110159;1243;59705;-66
2023/02/23 01:20:27;;;;;;;31.00;22.10;;;;;;;1.12;82.99;97341.40;110174;1241;70642;-66
2023/02/23 01:22:57;;;;;;;27.30;20.10;;;;;;;1.09;82.49;97345.42;110220;1241;69241;-66
2023/02/23 01:25:30;;;;;;;35.40;25.20;;;;;;;1.07;84.92;97345.53;110248;1242;68579;-66
2023/02/23 01:28:01;;;;;;;31.60;20.80;;;;;;;1.05;84.66;97344.05;110221;1241;59741;-66
2023/02/23 01:30:33;;;;;;;26.10;20.10;;;;;;;1.03;85.75;97336.05;110143;1241;59728;-65
2023/02/23 01:33:04;;;;;;;27.60;19.10;;;;;;;0.99;85.07;97336.34;110199;1249;70624;-65
2023/02/23 01:35:36;;;;;;;29.70;18.80;;;;;;;0.97;84.80;97335.90;110091;1244;68466;-66
2023/02/23 01:38:07;;;;;;;22.00;16.50;;;;;;;0.93;85.38;97334.83;110225;1241;69289;-66
2023/02/23 01:40:42;;;;;;;27.10;19.10;;;;;;;0.91;85.71;97333.02;110214;1241;59747;-66
2023/02/23 01:43:15;;;;;;;28.50;20.30;;;;;;;0.89;85.49;97334.84;110108;1241;59676;-66
2023/02/23 01:45:46;;;;;;;31.20;20.70;;;;;;;0.86;85.27;97335.79;110268;1241;70577;-68
2023/02/23 01:48:30;;;;;;;29.10;20.30;;;;;;;0.82;85.78;97334.55;110180;1244;69361;-66
2023/02/23 01:51:02;;;;;;;29.60;20.50;;;;;;;0.81;85.59;97328.44;110264;1242;69266;-68
2023/02/23 01:53:36;;;;;;;34.10;23.70;;;;;;;0.80;86.72;97332.41;110299;1242;59672;-65
2023/02/23 01:56:13;;;;;;;31.70;22.20;;;;;;;0.79;87.37;97330.88;110254;1242;59631;-65
2023/02/23 01:58:51;;;;;;;31.40;20.30;;;;;;;0.80;87.94;97330.02;110313;1241;69793;-65
2023/02/23 02:01:23;;;;;;;29.80;20.20;;;;;;;0.81;87.50;97331.85;110256;1242;69505;-65
2023/02/23 02:04:00;;;;;;;27.10;20.40;;;;;;;0.82;86.45;97331.98;110196;1242;67676;-65
2023/02/23 02:06:31;;;;;;;31.00;19.30;;;;;;;0.82;86.45;97325.61;110087;1244;59637;-66
2023/02/23 02:09:16;;;;;;;25.30;17.80;;;;;;;0.82;86.42;97323.39;110222;1242;59775;-65
2023/02/23 02:11:52;;;;;;;27.00;17.40;;;;;;;0.77;87.26;97330.09;110180;1240;70479;-65
2023/02/23 02:14:28;;;;;;;25.90;17.50;;;;;;;0.72;87.20;97330.12;110230;1242;69223;-68
2023/02/23 02:17:30;;;;;;;29.70;18.30;;;;;;;0.68;87.07;97331.61;110216;1241;68381;-66
2023/02/23 02:20:37;;;;;;;35.30;19.60;;;;;;;0.64;86.01;97332.77;109793;1242;59751;-66
2023/02/23 02:23:22;;;;;;;25.70;18.30;;;;;;;0.60;86.25;97332.06;110250;1242;59649;-66
2023/02/23 02:26:42;;;;;;;33.80;20.30;;;;;;;0.58;87.08;97332.82;110237;1241;71317;-66
2023/02/23 02:29:27;;;;;;;28.40;18.40;;;;;;;0.50;88.15;97335.31;109723;1241;69121;-66
2023/02/23 02:32:28;;;;;;;30.70;19.20;;;;;;;0.46;88.05;97332.69;110165;1242;69461;-66
2023/02/23 02:35:20;;;;;;;26.40;18.50;;;;;;;0.40;88.73;97332.72;110194;1242;59772;-66
2023/02/23 02:38:15;;;;;;;32.40;20.40;;;;;;;0.37;88.90;97333.02;110244;1242;59640;-66
2023/02/23 02:40:53;;;;;;;28.40;19.40;;;;;;;0.36;87.97;97331.51;110250;1243;70351;-66
2023/02/23 02:44:02;;;;;;;28.50;19.30;;;;;;;0.34;86.76;97331.90;110259;1241;68399;-66
2023/02/23 02:46:46;;;;;;;30.90;20.70;;;;;;;0.33;87.86;97333.14;110158;1244;69247;-66
2023/02/23 02:49:31;;;;;;;26.80;18.80;;;;;;;0.31;87.40;97333.20;110128;1240;59748;-66
2023/02/23 02:52:28;;;;;;;25.50;19.00;;;;;;;0.29;87.25;97337.41;110226;1242;59698;-68
2023/02/23 02:55:11;;;;;;;26.70;16.60;;;;;;;0.28;87.56;97342.07;110146;1244;72038;-66
2023/02/23 02:57:45;;;;;;;27.80;18.40;;;;;;;0.25;86.47;97337.86;110197;1241;68488;-65
2023/02/23 04:18:33;;;;;;;29.20;19.50;;;;;;;-0.37;92.07;97372.36;110235;1243;59685;-66
2023/02/23 04:21:05;;;;;;;32.10;23.90;;;;;;;-0.41;92.37;97370.59;110245;1242;59695;-66
2023/02/23 04:23:39;;;;;;;33.00;20.80;;;;;;;-0.43;92.80;97367.21;110215;1240;71405;-66
2023/02/23 04:26:09;;;;;;;31.40;21.20;;;;;;;-0.42;92.72;97371.32;110251;1249;69829;-66
2023/02/23 04:28:38;;;;;;;;;;;;;;;-0.42;94.34;97366.85;110269;1242;69313;-66
2023/02/23 04:31:07;;;;;;;;;;;;;;;-0.42;94.11;97368.73;110245;1241;59736;-65
2023/02/23 04:33:37;;;;;;;;;;;;;;;-0.43;93.83;97371.33;110251;1241;59708;-66
2023/02/23 04:36:09;;;;;;;;;;;;;;;-0.45;94.07;97368.99;110410;1242;71977;-68
2023/02/23 04:38:39;;;;;;;;;;;;;;;-0.45;94.32;97370.38;110220;1240;69584;-69
2023/02/23 04:41:10;;;;;;;;;;;;;;;-0.47;94.25;97369.06;110287;1242;69306;-69
2023/02/23 04:43:45;;;;;;;;;;;;;;;-0.49;94.18;97369.66;110213;1241;59723;-67
2023/02/23 04:46:15;;;;;;;;;;;;;;;-0.52;94.20;97369.20;110221;1240;59743;-66
2023/02/23 04:48:44;;;;;;;;;;;;;;;-0.56;95.47;97373.26;110283;1242;71887;-66
2023/02/23 04:51:14;;;;;;;;;;;;;;;-0.61;95.87;97375.11;110292;1241;69730;-66
2023/02/23 04:53:43;;;;;;;;;;;;;;;-0.64;96.18;97374.02;110307;1242;69283;-67
2023/02/23 04:56:14;;;;;;;;;;;;;;;-0.67;96.82;97373.93;110337;1242;59671;-67
2023/02/23 04:58:43;;;;;;;;;;;;;;;-0.71;96.28;97373.16;110202;1242;59718;-67
2023/02/23 05:01:13;;;;;;;;;;;;;;;-0.73;95.85;97377.70;110271;1241;71418;-67
2023/02/23 05:03:42;;;;;;;;;;;;;;;-0.77;96.67;97378.15;110115;1243;69342;-68
2023/02/23 05:06:12;;;;;;;;;;;;;;;-0.81;96.76;97379.61;110132;1245;69708;-68
2023/02/23 05:08:41;;;;;;;;;;;;;;;-0.84;96.81;97381.59;110208;1240;59757;-68
2023/02/23 05:11:10;;;;;;;;;;;;;;;-0.88;96.68;97386.66;110221;1241;59760;-68
2023/02/23 05:13:40;;;;;;;;;;;;;;;-0.92;96.09;97381.64;110212;1242;71376;-71
2023/02/23 05:16:11;;;;;;;;;;;;;;;-0.96;96.64;97384.84;110492;1241;68641;-72
2023/02/23 05:18:42;;;;;;;;;;;;;;;-1.00;96.84;97387.86;110418;1240;69459;-71
2023/02/23 05:21:11;;;;;;;;;;;;;;;-1.03;96.92;97391.33;110307;1241;59792;-71
2023/02/23 05:23:39;;;;;;;;;;;;;;;-1.05;97.36;97392.76;110413;1242;59672;-71
2023/02/23 05:26:11;;;;;;;;;;;;;;;-1.05;97.43;97394.32;110362;1241;71310;-71
2023/02/23 05:28:40;;;;;;;;;;;;;;;-1.05;97.51;97395.50;110313;1242;69648;-71
2023/02/23 05:31:10;;;;;;;;;;;;;;;-1.04;97.46;97396.48;110184;1242;69273;-71
2023/02/23 05:33:44;;;;;;;;;;;;;;;-1.04;96.89;97397.86;110300;1243;59748;-71
2023/02/23 05:36:15;;;;;;;;;;;;;;;-1.05;93.23;97400.80;110253;1241;59741;-71
2023/02/23 05:38:45;;;;;;;;;;;;;;;-1.04;91.12;97408.13;110342;1242;71991;-71
2023/02/23 05:41:15;;;;;;;;;;;;;;;-1.03;90.58;97409.30;110409;1241;69117;-71
2023/02/23 05:43:44;;;;;;;;;;;;;;;-1.02;91.08;97411.67;110351;1242;69431;-72
2023/02/23 05:46:17;;;;;;;;;;;;;;;-1.02;93.12;97412.86;110319;1241;59751;-71
2023/02/23 05:48:45;;;;;;;;;;;;;;;-1.00;95.80;97415.23;110359;1241;59702;-71
2023/02/23 05:51:15;;;;;;;;;;;;;;;-0.98;96.50;97416.71;110341;1242;70668;-71
2023/02/23 05:53:45;;;;;;;;;;;;;;;-0.93;97.61;97422.40;110351;1248;69227;-71
2023/02/23 05:56:19;;;;;;;;;;;;;;;-0.90;97.48;97425.38;110401;1241;69292;-71
2023/02/23 05:58:49;;;;;;;;;;;;;;;-0.83;97.19;97432.20;110406;1242;59774;-71
2023/02/23 06:01:18;;;;;;;;;;;;;;;-0.76;96.70;97432.36;110362;1242;59703;-71
2023/02/23 06:03:47;;;;;;;;;;;;;;;-0.67;95.58;97437.74;110386;1243;71366;-71
2023/02/23 06:06:16;;;;;;;;;;;;;;;-0.56;93.56;97438.65;110384;1241;68498;-71
2023/02/23 06:08:45;;;;;;;;;;;;;;;-0.44;94.38;97442.43;110508;1242;69276;-72
2023/02/23 06:11:13;;;;;;;;;;;;;;;-0.29;96.98;97445.95;110362;1242;59647;-71
2023/02/23 06:13:42;;;;;;;;;;;;;;;-0.14;97.03;97448.91;110354;1242;59672;-70
2023/02/23 06:16:10;;;;;;;;;;;;;;;0.02;96.43;97450.50;110360;1240;71412;-71
2023/02/23 06:18:39;;;;;;;;;;;;;;;0.17;95.87;97453.30;110229;1242;69444;-70
2023/02/23 06:21:09;;;;;;;;;;;;;;;0.34;94.99;97459.64;110450;1242;69078;-69
2023/02/23 06:23:38;;;;;;;;;;;;;;;0.46;93.51;97458.23;110330;1242;59678;-69
2023/02/23 06:26:07;;;;;;;;;;;;;;;0.61;92.31;97457.91;110357;1241;59750;-69
2023/02/23 06:28:36;;;;;;;;;;;;;;;0.75;91.98;97459.36;110237;1241;71973;-69
2023/02/23 06:31:05;;;;;;;;;;;;;;;0.83;92.01;97459.77;110296;1241;69215;-69
2023/02/23 06:33:34;;;;;;;;;;;;;;;0.91;91.85;97461.40;110168;1241;69687;-69
2023/02/23 06:36:03;;;;;;;;;;;;;;;1.02;92.09;97460.51;110036;1243;59740;-69
2023/02/23 06:38:32;;;;;;;;;;;;;;;1.26;90.93;97461.58;110395;1241;59698;-69
2023/02/23 06:41:05;;;;;;;;;;;;;;;1.49;89.69;97469.36;110209;1241;70445;-69
2023/02/23 06:43:34;;;;;;;;;;;;;;;1.72;88.65;97469.03;110263;1242;69220;-69
2023/02/23 06:46:03;;;;;;;;;;;;;;;1.94;87.57;97468.70;110385;1241;69768;-69
2023/02/23 06:48:31;;;;;;;;;;;;;;;2.20;86.63;97470.33;110256;1242;59741;-69
2023/02/23 06:51:00;;;;;;;;;;;;;;;2.43;86.07;97473.04;110265;1242;59647;-70
2023/02/23 06:53:29;;;;;;;;;;;;;;;2.72;85.13;97471.54;110390;1242;70844;-69
2023/02/23 06:55:58;;;;;;;;;;;;;;;2.93;82.67;97469.33;110275;1241;68306;-69
2023/02/23 06:58:27;;;;;;;;;;;;;;;3.04;81.50;97465.56;110186;1240;68363;-69
2023/02/23 07:00:57;;;;;;;;;;;;;;;3.16;81.18;97466.98;110183;1242;59754;-70
2023/02/23 07:03:26;;;;;;;;;;;;;;;3.33;79.55;97468.85;110396;1242;59694;-70
2023/02/23 07:05:54;;;;;;;;;;;;;;;3.54;79.89;97467.08;110273;1242;71419;-70
2023/02/23 07:08:23;;;;;;;;;;;;;;;3.70;78.83;97467.58;110286;1242;68259;-70
2023/02/23 07:10:51;;;;;;;;;;;;;;;3.97;78.40;97466.20;110207;1242;69187;-70
2023/02/23 07:13:20;;;;;;;;;;;;;;;4.16;76.67;97466.73;110317;1241;59735;-70
2023/02/23 07:15:49;;;;;;;;;;;;;;;4.23;74.66;97466.55;110329;1241;59727;-70
2023/02/23 07:18:18;;;;;;;;;;;;;;;4.50;73.28;97465.45;110335;1241;71268;-71
2023/02/23 07:20:46;;;;;;;;;;;;;;;4.83;71.59;97462.66;110340;1242;69299;-71
2023/02/23 07:23:15;;;;;;;;;;;;;;;5.20;69.63;97461.84;110340;1242;68803;-70
2023/02/23 07:25:44;;;;;;;;;;;;;;;5.38;68.53;97461.80;110369;1240;59740;-70
2023/02/23 07:28:13;;;;;;;;;;;;;;;5.71;67.07;97459.75;110217;1242;59691;-71
2023/02/23 07:30:42;;;;;;;;;;;;;;;6.02;66.13;97458.46;110240;1242;71933;-70
2023/02/23 07:33:10;;;;;;;;;;;;;;;6.26;66.72;97457.20;110259;1242;69898;-70
2023/02/23 07:35:39;;;;;;;;;;;;;;;6.66;64.30;97453.73;110207;1242;69098;-71
2023/02/23 07:38:07;;;;;;;;;;;;;;;7.17;61.98;97448.59;110356;1241;59676;-71
2023/02/23 07:40:36;;;;;;;;;;;;;;;7.49;60.25;97447.52;110319;1242;59688;-71
2023/02/23 07:43:04;;;;;;;;;;;;;;;7.79;59.75;97444.17;110386;1241;71875;-72
2023/02/23 07:45:33;;;;;;;;;;;;;;;8.07;59.56;97449.90;109187;1241;1489391;-72
2023/02/23 07:48:02;;;;;;;;;;;;;;;8.56;58.82;97448.78;110411;1240;69187;-72
2023/02/23 07:50:31;;;;;;;;;;;;;;;8.70;56.98;97447.67;110405;1241;59739;-71
2023/02/23 07:52:59;;;;;;;;;;;;;;;9.00;55.93;97445.36;110284;1241;59702;-72
2023/02/23 07:55:27;;;;;;;;;;;;;;;9.43;55.49;97448.56;110303;1242;72008;-71
2023/02/23 07:57:56;;;;;;;;;;;;;;;10.11;57.31;97452.42;110353;1242;67628;-71
2023/02/23 08:00:26;;;;;;;;;;;;;;;10.64;56.00;97446.98;110190;1241;69878;-71
2023/02/23 08:02:54;;;;;;;;;;;;;;;10.80;52.72;97443.66;110247;1241;60737;-72
2023/02/23 08:05:24;;;;;;;;;;;;;;;10.75;51.17;97439.84;110356;1242;59663;-71
2023/02/23 08:07:55;;;;;;;;;;;;;;;10.88;51.09;97442.91;110228;1242;72041;-72
2023/02/23 08:10:25;;;;;;;;;;;;;;;11.16;50.43;97439.98;110167;1241;69071;-70
2023/02/23 08:12:56;;;;;;;;;;;;;;;11.34;50.49;97438.05;110408;1241;68799;-70
2023/02/23 08:15:24;;;;;;;;;;;;;;;11.91;48.97;97438.48;110291;1241;59741;-70
2023/02/23 08:17:53;;;;;;;;;;;;;;;12.35;49.07;97436.06;110275;1242;59663;-69
2023/02/23 08:20:21;;;;;;;;;;;;;;;12.43;47.02;97435.80;110179;1241;70967;-70
2023/02/23 08:22:54;;;;;;;;;;;;;;;12.78;48.16;97435.04;110279;1242;69642;-71
2023/02/23 08:25:23;;;;;;;;;;;;;;;12.87;46.02;97432.63;110432;1242;69294;-72
2023/02/23 08:27:52;;;;;;;;;;;;;;;12.96;46.28;97431.13;110349;1247;59688;-71
2023/02/23 08:30:22;;;;;;;;;;;;;;;13.60;46.17;97436.70;110271;1242;59630;-72
2023/02/23 08:32:50;;;;;;;;;;;;;;;14.01;45.66;97437.88;110446;1240;71373;-70
2023/02/23 08:35:19;;;;;;;;;;;;;;;13.57;43.83;97436.94;110294;1241;69723;-71
2023/02/23 08:37:47;;;;;;;;;;;;;;;14.16;43.52;97437.66;110357;1241;68964;-70
2023/02/23 08:40:17;;;;;;;;;;;;;;;14.65;42.77;97436.17;110163;1242;59664;-72
2023/02/23 08:42:50;;;;;;;;;;;;;;;14.83;41.47;97436.31;110387;1240;59956;-72
2023/02/23 08:45:19;;;;;;;;;;;;;;;15.37;42.08;97435.97;110394;1241;71990;-72
2023/02/23 08:47:48;;;;;;;;;;;;;;;15.31;40.42;97432.99;110370;1242;69616;-72
2023/02/23 08:50:16;;;;;;;;;;;;;;;15.05;41.21;97435.10;110431;1242;69154;-71
2023/02/23 08:52:45;;;;;;;;;;;;;;;15.54;41.39;97435.14;110269;1242;59694;-71
2023/02/23 08:55:15;;;;;;;;;;;;;;;16.16;40.07;97434.09;110452;1242;59800;-71
2023/02/23 08:57:44;;;;;;;;;;;;;;;16.10;39.42;97434.15;110228;1244;70791;-71
2023/02/23 09:00:15;;;;;;;;;;;;;;;16.16;39.59;97431.73;110225;1242;69671;-72
2023/02/23 09:02:47;;;;;;;;;;;;;;;15.88;39.52;97433.94;110205;1240;69750;-71
2023/02/23 09:05:16;;;;;;;;;;;;;;;16.05;38.46;97432.14;110345;1240;59851;-72
2023/02/23 09:07:45;;;;;;;;;;;;;;;15.83;39.37;97431.88;110325;1241;59702;-71
2023/02/23 09:10:15;;;;;;;;;;;;;;;16.75;38.00;97431.74;110212;1241;71986;-71
2023/02/23 09:12:45;;;;;;;;;;;;;;;16.51;37.63;97429.67;110307;1242;69043;-71
2023/02/23 09:15:14;;;;;;;;;;;;;;;16.60;37.31;97431.09;110342;1240;68688;-70
2023/02/23 09:17:43;;;;;;;;;;;;;;;16.68;37.19;97428.24;110269;1241;59745;-71
2023/02/23 09:20:14;;;;;;;;;;;;;;;17.00;37.53;97423.51;110295;1241;59678;-71
2023/02/23 09:22:44;;;;;;;;;;;;;;;17.83;36.69;97428.91;110263;1241;71173;-69
2023/02/23 09:25:17;;;;;;;;;;;;;;;18.03;35.61;97427.60;110073;1241;69199;-71
2023/02/23 09:27:46;;;;;;;;;;;;;;;18.33;35.57;97427.47;110267;1241;69177;-71
2023/02/23 09:30:19;;;;;;;;;;;;;;;18.90;34.56;97424.84;110100;1243;59732;-72
2023/02/23 09:32:49;;;;;;;;;;;;;;;18.49;33.30;97424.05;110149;1244;59630;-71
2023/02/23 09:35:19;;;;;;;;;;;;;;;17.85;34.77;97420.20;110284;1241;71951;-71
2023/02/23 09:37:48;;;;;;;;;;;;;;;17.79;34.21;97422.29;110246;1243;69450;-71
2023/02/23 09:40:20;;;;;;;;;;;;;;;18.58;34.33;97424.32;110254;1243;69881;-71
2023/02/23 09:43:07;;;;;;;;;;;;;;;18.63;33.48;97421.85;110216;1241;59728;-72
2023/02/23 09:45:46;;;;;;;;;;;;;;;17.81;33.72;97420.08;110157;1241;60188;-71
2023/02/23 09:48:17;;;;;;;;;;;;;;;16.88;36.21;97420.64;110174;1244;71419;-72
2023/02/23 09:50:54;;;;;;;;;;;;;;;17.65;35.47;97418.88;110259;1241;67591;-72
2023/02/23 09:53:35;;;;;;;;;;;;;;;18.38;34.79;97421.27;110225;1244;69980;-72
2023/02/23 09:56:11;;;;;;;;;;;;;;;18.95;33.57;97418.09;110195;1244;59737;-72
2023/02/23 09:58:39;;;;;;;;;;;;;;;18.91;33.18;97415.34;110182;1241;59651;-73
2023/02/23 10:01:28;;;;;;;;;;;;;;;19.51;33.76;97414.27;110282;1245;70773;-72
2023/02/23 10:04:01;;;;;;;;;;;;;;;20.35;30.93;97407.85;110280;1243;69103;-72
2023/02/23 10:06:29;;;;;;;;;;;;;;;19.21;31.99;97409.69;110130;1241;68346;-72
2023/02/23 10:09:18;;;;;;;;;;;;;;;20.05;32.19;97404.43;110280;1241;59698;-72
2023/02/23 10:11:55;;;;;;;;;;;;;;;20.98;30.86;97404.22;110263;1241;59663;-71
2023/02/23 10:14:43;;;;;;;;;;;;;;;21.10;30.31;97406.42;110282;1241;71767;-72
2023/02/23 10:17:25;;;;;;;;;;;;;;;21.24;29.87;97401.62;110180;1243;68706;-72
2023/02/23 10:20:06;;;;;;;;;;;;;;;20.36;29.91;97398.34;110259;1241;68993;-72
2023/02/23 10:22:36;;;;;;;;;;;;;;;21.28;29.75;97396.49;110287;1241;59681;-71
2023/02/23 10:25:08;;;;;;;;;;;;;;;21.13;29.06;97390.98;110315;1241;59614;-72
2023/02/23 10:27:40;;;;;;;;;;;;;;;20.19;29.38;97389.25;110247;1241;71399;-72
2023/02/23 10:30:23;;;;;;;;;;;;;;;19.33;31.14;97389.24;110294;1244;69060;-72
2023/02/23 10:32:56;;;;;;;;;;;;;;;20.11;30.19;97387.41;110289;1241;69292;-72
2023/02/23 10:35:27;;;;;;;;;;;;;;;20.84;28.98;97383.73;110298;1243;59649;-73
2023/02/23 10:37:56;;;;;;;;;;;;;;;20.66;30.05;97383.08;110182;1244;59676;-73
2023/02/23 10:40:27;;;;;;;;;;;;;;;20.81;29.62;97381.36;110316;1243;71327;-73
2023/02/23 10:42:57;;;;;;;;;;;;;;;21.39;29.50;97382.21;110362;1244;69675;-73
2023/02/23 10:45:26;;;;;;;;;;;;;;;21.12;28.11;97377.27;110297;1244;69859;-72
2023/02/23 10:47:57;;;;;;;;;;;;;;;21.66;28.58;97376.28;110381;1244;60173;-72
2023/02/23 10:50:27;;;;;;;;;;;;;;;21.99;27.18;97369.98;110298;1241;59688;-73
2023/02/23 10:53:03;;;;;;;;;;;;;;;21.71;26.52;97368.06;110302;1241;71644;-72
2023/02/23 10:55:32;;;;;;;;;;;;;;;21.69;26.92;97364.28;110284;1241;68278;-73
2023/02/23 10:58:07;;;;;;;;;;;;;;;22.14;26.90;97365.55;110264;1244;69090;-73
2023/02/23 11:00:39;;;;;;;;;;;;;;;22.42;26.51;97362.55;110241;1244;59701;-73
2023/02/23 11:03:37;;;;;;;;;;;;;;;22.29;25.87;97358.90;110258;1243;59597;-73
2023/02/23 11:06:27;;;;;;;;;;;;;;;22.18;26.21;97356.20;110142;1241;70826;-73
2023/02/23 11:08:56;;;;;;;;;;;;;;;21.89;26.57;97353.88;110242;1243;69265;-73
2023/02/23 11:11:27;;;;;;;;;;;;;;;22.22;25.90;97348.40;110248;1241;69769;-73
2023/02/23 11:13:56;;;;;;;;;;;;;;;21.81;24.99;97349.77;110140;1244;59633;-71
2023/02/23 11:16:29;;;;;;;;;;;;;;;21.78;24.99;97349.62;110300;1244;59658;-71
2023/02/23 11:19:02;;;;;;;;;;;;;;;21.19;25.92;97344.33;110200;1245;72026;-72
2023/02/23 11:21:37;;;;;;;;;;;;;;;20.78;26.45;97339.86;110256;1244;69808;-72
2023/02/23 11:24:18;;;;;;;;;;;;;;;20.47;27.27;97339.64;110283;1241;69335;-72
2023/02/23 11:26:47;;;;;;;;;;;;;;;20.32;27.17;97336.92;110310;1243;59754;-72
2023/02/23 11:29:34;;;;;;;;;;;;;;;20.63;27.78;97334.22;110236;1241;59700;-72
2023/02/23 11:32:07;;;;;;;;;;;;;;;21.68;26.38;97333.94;110315;1243;71372;-72
2023/02/23 11:34:39;;;;;;;;;;;;;;;21.99;25.78;97336.86;110276;1241;68388;-72
2023/02/23 11:37:22;;;;;;;;;;;;;;;22.29;25.46;97334.40;110265;1244;69301;-72
2023/02/23 11:39:56;;;;;;;;;;;;;;;22.18;25.00;97333.55;110283;1243;59677;-72
2023/02/23 11:42:31;;;;;;;;;;;;;;;21.85;26.11;97339.20;110231;1241;59747;-72
2023/02/23 11:45:05;;;;;;;;;;;;;;;21.91;26.18;97336.04;110293;1244;71931;-72
2023/02/23 11:47:38;;;;;;;;;;;;;;;22.29;25.36;97335.45;110265;1241;68419;-72
2023/02/23 11:50:19;;;;;;;;;;;;;;;22.60;25.76;97329.90;110218;1241;69117;-73
2023/02/23 11:52:48;;;;;;;;;;;;;;;23.18;24.87;97326.76;110238;1244;59706;-73
2023/02/23 11:55:19;;;;;;;;;;;;;;;22.66;23.81;97327.82;110244;1244;59693;-73
2023/02/23 11:57:49;;;;;;;;;;;;;;;22.14;25.16;97325.10;110285;1245;70535;-72
2023/02/23 12:00:35;;;;;;;;;;;;;;;22.05;25.94;97327.77;110290;1243;68333;-72
2023/02/23 12:03:04;;;;;;;;;;;;;;;22.79;24.36;97320.95;110219;1241;68539;-73
2023/02/23 12:05:32;;;;;;;;;;;;;;;22.54;24.74;97321.39;110232;1243;59703;-72
2023/02/23 12:08:06;;;;;;;;;;;;;;;22.14;25.34;97318.39;110241;1244;59750;-72
2023/02/23 12:10:42;;;;;;;;;;;;;;;21.78;25.41;97324.63;110233;1243;71833;-72
2023/02/23 12:13:23;;;;;;;;;;;;;;;21.52;25.86;97320.96;110275;1243;68465;-72
2023/02/23 12:15:55;;;;;;;;;;;;;;;21.31;26.15;97321.20;110265;1241;69144;-72
2023/02/23 12:18:27;;;;;;;;;;;;;;;20.97;26.22;97313.64;110259;1241;59697;-72
2023/02/23 12:21:00;;;;;;;;;;;;;;;20.52;27.28;97311.63;110302;1244;59679;-72
2023/02/23 12:23:31;;;;;;;;;;;;;;;20.57;27.53;97308.58;110265;1245;71478;-71
2023/02/23 12:26:03;;;;;;;;;;;;;;;20.46;27.72;97307.90;110288;1241;69049;-71
2023/02/23 12:28:35;;;;;;;;;;;;;;;21.41;26.83;97310.98;110242;1241;69851;-72
2023/02/23 12:31:23;;;;;;;;;;;;;;;21.49;26.43;97308.61;110246;1245;59646;-71
2023/02/23 12:34:03;;;;;;;;;;;;;;;21.59;26.34;97305.48;110266;1243;59707;-71
2023/02/23 12:36:37;;;;;;;;;;;;;;;21.19;26.21;97302.60;110240;1241;70631;-71
2023/02/23 12:39:09;;;;;;;;;;;;;;;20.93;27.01;97295.36;110269;1243;69709;-71
2023/02/23 12:41:42;;;;;;;;;;;;;;;21.08;26.73;97296.21;110252;1244;69158;-71
2023/02/23 12:44:33;;;;;;;;;;;;;;;21.11;26.59;97295.91;110090;1244;59692;-72
2023/02/23 12:47:20;;;;;;;;;;;;;;;21.14;26.81;97294.95;109976;1241;59729;-72
2023/02/23 12:49:54;;;;;;;;;;;;;;;21.17;26.68;97294.11;110229;1241;72058;-71
2023/02/23 12:52:29;;;;;;;;;;;;;;;20.86;26.86;97291.06;110320;1241;69851;-71
2023/02/23 12:54:58;;;;;;;;;;;;;;;20.29;27.40;97289.50;110228;1241;68333;-72
2023/02/23 12:57:47;;;;;;;;;;;;;;;19.93;28.57;97288.14;110260;1243;59756;-71
2023/02/23 13:00:35;;;;;;;;;;;;;;;20.06;28.17;97290.72;110199;1244;59691;-72
2023/02/23 13:03:09;;;;;;;;;;;;;;;19.43;28.81;97288.23;110269;1241;71390;-72
2023/02/23 13:05:40;;;;;;;;;;;;;;;19.42;29.29;97286.66;110265;1244;70278;-71
2023/02/23 13:08:24;;;;;;;;;;;;;;;19.52;29.49;97286.61;110289;1241;69690;-71
2023/02/23 13:11:02;;;;;;;;;;;;;;;19.64;28.96;97287.21;110276;1245;59662;-72
2023/02/23 13:13:39;;;;;;;;;;;;;;;19.81;28.99;97284.44;110235;1243;59598;-71
2023/02/23 13:16:15;;;;;;;;;;;;;;;20.06;28.32;97287.33;110101;1241;70960;-71
2023/02/23 13:18:46;;;;;;;;;;;;;;;19.95;27.99;97284.64;110287;1241;69127;-71
2023/02/23 13:21:24;;;;;;;;;;;;;;;19.74;28.38;97285.48;110274;1241;69824;-71
2023/02/23 13:24:01;;;;;;;;;;;;;;;19.44;28.56;97281.39;110256;1241;59691;-70
2023/02/23 13:26:35;;;;;;;;;;;;;;;19.22;29.13;97277.11;110270;1241;59788;-73
2023/02/23 13:29:07;;;;;;;;;;;;;;;19.29;29.26;97275.34;110273;1243;71977;-72
2023/02/23 13:31:37;;;;;;;;;;;;;;;19.28;29.44;97276.94;110238;1241;69220;-71
2023/02/23 13:34:11;;;;;;;;;;;;;;;19.12;29.37;97278.02;110286;1241;69127;-72
2023/02/23 13:36:41;;;;;;;;;;;;;;;18.80;29.56;97278.20;110281;1241;59609;-73
2023/02/23 13:39:29;;;;;;;;;;;;;;;18.32;30.40;97273.73;110354;1243;59689;-72
2023/02/23 13:42:18;;;;;;;;;;;;;;;18.26;30.40;97273.10;110325;1241;71378;-71
2023/02/23 13:45:05;;;;;;;;;;;;;;;18.05;30.58;97274.14;110327;1241;69058;-72
2023/02/23 13:47:45;;;;;;;;;;;;;;;17.82;31.08;97275.99;110311;1241;69100;-72
2023/02/23 13:50:13;;;;;;;;;;;;;;;17.63;31.66;97278.11;110242;1244;59682;-72
2023/02/23 13:52:43;;;;;;;;;;;;;;;17.51;32.21;97278.39;110282;1244;59677;-72
2023/02/23 13:55:26;;;;;;;;;;;;;;;17.60;32.07;97280.58;110285;1241;71199;-72
2023/02/23 13:58:14;;;;;;;;;;;;;;;17.61;32.01;97278.52;110288;1243;69228;-72
2023/02/23 14:00:42;;;;;;;;;;;;;;;17.69;32.22;97273.31;110268;1241;68953;-72
2023/02/23 14:03:23;;;;;;;;;;;;;;;17.86;32.00;97273.55;110211;1245;59745;-71
2023/02/23 14:05:55;;;;;;;;;;;;;;;18.01;31.88;97270.36;110247;1243;59705;-70
2023/02/23 14:08:34;;;;;;;;;;;;;;;17.82;31.88;97274.05;110269;1243;71267;-72